Hallettsville, Texas
Current Conditions -  °F | °C
As of 1:55 AM on Monday 24 Nov 2014 (Local Time) from K66R Reporting Station
Clear Clear  
Wind Chill: 57°   Ceiling: Unl
Heat Index: 57°   Visibility: 10mi
Dew Point: 42°   Wind: 16mph
Humidity: 59%   Direction: 350°N
Pressure: 29.84"   Gusts: 21mph
Location:  29.44°N, 96.94°W
Report Text: K66R 240755Z AUTO 35014G18KT 10SM CLR 14/06 A2984 RMK AO2 T01370058
Loading
Personal Weather Stations






























Interactive Weather Map New forecast layout! Learn more

10-Day Weather Forecast

Advertisements
Track Severe Weather on mobile